Isaac Rosenberg

(25 November 1890 – 1 April 1918 / Bristol / England)

Stats

» Click to list general statistics » OR, select a date :

General Statistics

Visitors of the poet

Number of visitors of the poet’s mainpage in PoemHunter.Com

Attention : Numbers in this table does not indicate the total hits of poems of the poet, but indicates the hits of the poet’s main page.

Date Hits
08/29/2016 Monday 349
100%
08/28/2016 Sunday 191
54%
08/27/2016 Saturday 157
44%
08/26/2016 Friday 112
32%
08/25/2016 Thursday 123
35%
08/24/2016 Wednesday 223
63%
08/23/2016 Tuesday 181
51%
08/22/2016 Monday 120
34%
08/21/2016 Sunday 135
38%
08/20/2016 Saturday 110
31%
08/19/2016 Friday 101
28%
08/18/2016 Thursday 102
29%
08/17/2016 Wednesday 115
32%
08/16/2016 Tuesday 94
26%
08/15/2016 Monday 152
43%
08/14/2016 Sunday 136
38%
08/13/2016 Saturday 134
38%
08/12/2016 Friday 166
47%
08/11/2016 Thursday 168
48%
08/10/2016 Wednesday 174
49%

Reader rating & num.of MyPoemList’s

Click the captions of columns to change the order.

# Poem Title Submit Date Reader Rating Num.of MyPoemList’s
Rating Num.R.
1 ‘a Worm Fed On The Heart Of Corinth' 04/12/2010 4.8 23 2
2 A Ballad Of Whitechapel 04/28/2012 -- 0 1
3 A Careless Heart 04/28/2012 7.0 1 2
4 A Girls Thoughts 04/28/2012 7.0 1 0
5 A Mood 04/28/2012 7.0 1 0
6 A Question 04/28/2012 8.0 3 1
7 Ah, Koelue 04/12/2010 4.7 22 0
8 At Night 04/28/2012 5.4 11 1
9 August 1914 04/12/2010 5.0 33 1
10 Beauty 04/28/2012 -- 0 2
11 Break Of Day In The Trenches 01/03/2003 6.0 46 55
12 Chagrin 04/28/2012 5.0 1 0
13 Creation 04/28/2012 5.1 11 0
14 Daughters Of War 04/28/2012 10.0 1 1
15 Dawn 04/28/2012 -- 0 1
16 Dead Man's Dump 01/03/2003 6.2 36 34
17 Don Juans Song 04/28/2012 -- 0 1
18 Expression 04/28/2012 -- 0 0
19 Far Away 04/28/2012 -- 0 1
20 First Fruit 04/28/2012 7.0 1 0
21 From Night And Day 04/28/2012 -- 0 1
22 Girl To A Soldier On Leave 04/12/2010 5.5 10 0
23 God 01/03/2003 5.2 28 25
24 Hearts First Word. I. 04/28/2012 -- 0 1
25 Hearts First Word. Ii 04/28/2012 -- 0 0
26 Home-Thoughts From France 04/28/2012 -- 0 0
27 If You Are Fire 04/28/2012 -- 0 0
28 In Piccadi 04/28/2012 -- 0 0
29 In The Trenches 01/03/2003 5.6 33 28
30 In The Underworld 04/28/2012 -- 0 0
31 In War 04/28/2012 -- 0 0
32 Isolation : A Fragment 04/28/2012 -- 0 0
33 Killed In Action 04/28/2012 8.0 1 0
34 Louse Hunting 04/28/2012 -- 0 0
35 Louse Hunting 01/03/2003 5.8 29 26
36 Marching (As Seen From The Left File) 04/12/2010 4.7 23 1
37 My Days 04/28/2012 7.0 1 0
38 O, In A World Of Men And Women 04/28/2012 -- 0 1
39 Of Any Old Man 04/12/2010 4.7 22 1
40 On A Lady Singing 04/28/2012 -- 0 0
41 On Receiving News Of The War 04/28/2012 -- 0 0
42 On Receiving News Of The War 01/03/2003 5.4 29 25
43 Returning, We Hear The Larks 01/03/2003 5.3 36 30
44 Sleep 04/28/2012 -- 0 1
45 Soldier : Twentieth Century 04/28/2012 -- 0 0
46 Soldier: Twentieth Century 04/12/2010 4.7 23 1
47 Song 04/28/2012 -- 0 0
48 Spring 04/12/2010 4.4 22 1
49 Spring, 1916 04/28/2012 -- 0 0
50 Tess 04/28/2012 -- 0 0
51 The Blind God 04/28/2012 -- 0 0
52 The Burning Of The Temple 04/28/2012 7.0 1 0
53 The Destruction Of Jerusalem By The Babylonian Hordes 04/28/2012 -- 0 0
54 The Dying Soldier 04/28/2012 -- 0 1
55 The Female God 04/28/2012 -- 0 0
56 The Immortals 01/03/2003 5.5 32 25
57 The Jew 01/03/2003 5.3 28 25
58 The Nun 04/28/2012 7.0 1 0
59 The One Lost 04/28/2012 7.0 1 1
60 The Troop Ship 04/12/2010 5.0 27 2
61 Through These Pale Cold Days 01/03/2003 5.3 32 25
62 Wedded 04/28/2012 8.8 4 2
63 Zion 04/28/2012 9.5 2 2
[Report Error]